Flight Track Log - Related Links

Times and Time Zones

All times are in EDT time to prevent confusion due to time zone crossing. See the SWA499 flight status page for this flight to view local times or setup timezone preferences in your user account.

Time Position Orientation Groundspeed Altitude Reporting Facility
EDT Latitude Longitude Course Direction KTS MPH feet Rate Location/Type
Thu 02:39:39 PM 39.3333 -94.6833 33° Northeast 163 188 4,800  Level Kansas City TRACON
Thu 02:40:51 PM 39.3425 -94.5972 82° East 231 266 6,700 2,642 Climbing Kansas City Center
Thu 02:41:53 PM 39.3506 -94.4814 85° East 290 334 10,700 3,194 Climbing Kansas City Center
Thu 02:42:55 PM 39.3583 -94.3678 85° East 335 386 13,300 2,903 Climbing Kansas City Center
Thu 02:43:57 PM 39.3689 -94.2206 85° East 365 420 16,700 2,952 Climbing Kansas City Center
Thu 02:44:59 PM 39.3761 -94.0872 86° East 386 444 19,400 2,927 Climbing Kansas City Center
Thu 02:46:00 PM 39.3883 -93.9264 84° East 401 461 22,700 2,000 Climbing Kansas City Center
Thu 02:47:02 PM 39.4061 -93.7844 81° East 416 479 23,500 1,645 Climbing Kansas City Center
Thu 02:48:04 PM 39.4283 -93.6361 79° East 425 489 26,100 2,274 Climbing Kansas City Center
Thu 02:49:06 PM 39.4461 -93.4825 81° East 437 503 28,200 2,129 Climbing Kansas City Center
Thu 02:50:08 PM 39.4694 -93.2897 81° East 453 521 30,500 2,000 Climbing Kansas City Center
Thu 02:51:09 PM 39.4881 -93.1244 82° East 467 537 32,300 2,098 Climbing Kansas City Center
Thu 02:52:11 PM 39.5069 -92.9586 82° East 469 540 34,800 2,081 Climbing Kansas City Center
Thu 02:53:13 PM 39.5244 -92.7981 82° East 464 534 36,600 1,500 Climbing Kansas City Center
Thu 02:54:15 PM 39.5428 -92.6394 81° East 458 527 37,900 1,113 Climbing Kansas City Center
Thu 02:55:17 PM 39.5528 -92.4453 86° East 463 533 38,900 878 Climbing Kansas City Center
Thu 02:56:18 PM 39.5511 -92.2806 91° East 461 531 39,700 732 Climbing Kansas City Center
Thu 02:57:20 PM 39.5475 -92.1114 92° East 470 541 40,400 629 Climbing Kansas City Center
Thu 02:58:22 PM 39.5433 -91.9392 92° East 479 551 41,000 290 Climbing Kansas City Center
Thu 02:59:24 PM 39.5389 -91.7719 92° East 475 547 41,000  Level Kansas City Center
Thu 03:00:26 PM 39.5319 -91.5717 93° East 471 542 41,000  Level Kansas City Center
Thu 03:01:28 PM 39.5272 -91.4025 92° East 472 543 41,000  Level Kansas City Center
Thu 03:02:29 PM 39.5225 -91.2528 92° East 471 542 41,000  Level Kansas City Center
Thu 03:03:31 PM 39.5150 -91.0483 93° East 473 544 41,000  Level Kansas City Center
Thu 03:04:33 PM 39.5083 -90.8797 93° East 471 542 41,000  Level Kansas City Center
Thu 03:05:35 PM 39.5017 -90.7111 93° East 470 541 41,000  Level Kansas City Center
Thu 03:06:37 PM 39.4936 -90.5458 94° East 465 535 41,000  Level Kansas City Center
Thu 03:07:38 PM 39.4864 -90.3792 93° East 464 534 41,000  Level Kansas City Center
Thu 03:08:40 PM 39.4794 -90.2133 93° East 461 531 41,000  Level Kansas City Center
Thu 03:09:42 PM 39.4758 -90.0469 92° East 462 532 41,000  Level Kansas City Center
Thu 03:10:44 PM 39.4817 -89.8814 87° East 461 531 41,000  Level Kansas City Center
Thu 03:11:46 PM 39.4861 -89.6864 88° East 455 524 41,000  Level Kansas City Center
Thu 03:12:48 PM 39.4900 -89.5217 88° East 456 525 41,000  Level Kansas City Center
Thu 03:13:50 PM 39.4939 -89.3581 88° East 456 525 41,000  Level Kansas City Center
Thu 03:14:52 PM 39.4981 -89.2039 88° East 455 524 41,000  Level Kansas City Center
Thu 03:15:54 PM 39.5042 -89.0086 88° East 455 524 41,000  Level Kansas City Center
Thu 03:16:55 PM 39.5106 -88.8453 87° East 456 525 41,000  Level Kansas City Center
Thu 03:17:57 PM 39.5286 -88.6844 82° East 454 522 41,000  Level Kansas City Center
Thu 03:18:59 PM 39.5450 -88.5294 82° East 456 525 41,000  Level Kansas City Center
Thu 03:20:01 PM 39.5592 -88.3681 83° East 452 520 41,000  Level Kansas City Center
Thu 03:21:03 PM 39.5778 -88.1736 83° East 451 519 41,000  Level Kansas City Center
Thu 03:22:05 PM 39.5922 -88.0128 83° East 448 516 41,000  Level Kansas City Center
Thu 03:23:07 PM 39.6058 -87.8531 84° East 446 513 41,000  Level Kansas City Center
Thu 03:23:23 PM 39.6069 -87.8214 87° East 446 513 41,000  Level Indianapolis Center
Thu 03:24:25 PM 39.6228 -87.6631 83° East 445 512 41,000  Level Indianapolis Center
Thu 03:25:27 PM 39.6361 -87.5039 84° East 445 512 41,000  Level Indianapolis Center
Thu 03:26:29 PM 39.6533 -87.3128 83° East 446 513 41,000  Level Indianapolis Center
Thu 03:27:31 PM 39.6650 -87.1531 85° East 447 514 41,000  Level Indianapolis Center
Thu 03:28:33 PM 39.6789 -86.9950 83° East 445 512 41,000  Level Indianapolis Center
Thu 03:29:35 PM 39.6914 -86.8356 84° East 445 512 41,000  Level Indianapolis Center
Thu 03:30:37 PM 39.7039 -86.6769 84° East 444 511 41,000  Level Indianapolis Center
Thu 03:31:39 PM 39.7192 -86.4856 84° East 446 513 41,000  Level Indianapolis Center
Thu 03:32:41 PM 39.7292 -86.3458 85° East 446 513 41,000  Level Indianapolis Center
Thu 03:33:43 PM 39.7406 -86.1844 85° East 447 514 41,000  Level Indianapolis Center
Thu 03:34:45 PM 39.7561 -85.9906 84° East 445 512 41,000  Level Indianapolis Center
Thu 03:35:47 PM 39.7683 -85.8308 84° East 446 513 41,000  Level Indianapolis Center
Thu 03:36:49 PM 39.7792 -85.6719 85° East 445 512 41,000  Level Indianapolis Center
Thu 03:37:51 PM 39.7894 -85.5142 85° East 441 507 41,000  Level Indianapolis Center
Thu 03:38:54 PM 39.8006 -85.3531 85° East 446 513 41,000  Level Indianapolis Center
Thu 03:39:56 PM 39.8108 -85.1917 85° East 450 518 41,000  Level Indianapolis Center
Thu 03:40:58 PM 39.8233 -84.9992 85° East 448 516 41,000  Level Indianapolis Center
Thu 03:42:00 PM 39.8328 -84.8439 85° East 448 516 41,000  Level Indianapolis Center
Thu 03:43:02 PM 39.8439 -84.6831 85° East 444 511 41,000  Level Indianapolis Center
Thu 03:44:04 PM 39.8539 -84.5200 85° East 448 516 41,000  Level Indianapolis Center
Thu 03:45:06 PM 39.8631 -84.3589 86° East 445 512 41,000  Level Indianapolis Center
Thu 03:46:08 PM 39.8739 -84.1697 86° East 446 513 41,000  Level Indianapolis Center
Thu 03:47:10 PM 39.8825 -84.0092 86° East 443 510 41,000  Level Indianapolis Center
Thu 03:48:12 PM 39.8903 -83.8492 86° East 441 507 41,000  Level Indianapolis Center
Thu 03:49:14 PM 39.9006 -83.6872 85° East 441 507 41,000  Level Indianapolis Center
Thu 03:50:16 PM 39.9092 -83.5336 86° East 443 510 41,000  Level Indianapolis Center
Thu 03:51:18 PM 39.9172 -83.3775 86° East 436 502 41,000  Level Indianapolis Center
Thu 03:52:20 PM 39.9256 -83.2028 86° East 430 495 41,000  Level Indianapolis Center
Thu 03:53:22 PM 39.9328 -83.0453 87° East 430 495 41,000  Level Indianapolis Center
Thu 03:54:24 PM 39.9403 -82.8897 86° East 428 493 41,000  Level Indianapolis Center
Thu 03:55:26 PM 39.9475 -82.7308 87° East 435 501 41,000  Level Indianapolis Center
Thu 03:56:28 PM 39.9547 -82.5464 87° East 436 502 41,000  Level Indianapolis Center
Thu 03:57:30 PM 39.9614 -82.3864 87° East 438 504 41,000  Level Indianapolis Center
Thu 03:58:32 PM 39.9686 -82.2242 87° East 444 511 41,000  Level Indianapolis Center
Thu 03:59:35 PM 39.9750 -82.0633 87° East 442 509 41,000  Level Indianapolis Center
Thu 04:00:37 PM 39.9814 -81.9022 87° East 441 507 41,000  Level Indianapolis Center
Thu 04:01:39 PM 39.9872 -81.7300 87° East 439 505 41,000  Level Indianapolis Center
Thu 04:02:41 PM 39.9928 -81.5706 87° East 438 504 41,000  Level Indianapolis Center
Thu 04:03:43 PM 39.9867 -81.4119 93° East 434 499 41,000  Level Indianapolis Center
Thu 04:04:45 PM 39.9656 -81.2542 100° East 440 506 41,000  Level Indianapolis Center
Thu 04:05:47 PM 39.9453 -81.1022 100° East 438 504 41,000  Level Indianapolis Center
Thu 04:06:11 PM 39.9372 -81.0108 97° East 439 505 41,000  Level Cleveland Center
Thu 04:07:11 PM 39.9167 -80.8564 100° East 439 505 41,000  Level Cleveland Center
Thu 04:08:12 PM 39.8961 -80.7131 101° East 439 505 41,000  Level Cleveland Center
Thu 04:09:11 PM 39.8753 -80.5614 100° East 434 499 41,000  Level Cleveland Center
Thu 04:10:11 PM 39.8522 -80.4072 101° East 429 494 41,000  Level Cleveland Center
Thu 04:11:12 PM 39.8311 -80.2478 100° East 434 499 41,000 -500 Level Cleveland Center
Thu 04:12:11 PM 39.8097 -80.0939 100° East 434 499 40,000 -1,765 Descending Cleveland Center
Thu 04:13:11 PM 39.7861 -79.9400 101° East 434 499 37,500 -2,412 Descending Cleveland Center
Thu 04:15:35 PM 39.7353 -79.5797 100° East 419 482 31,800 -2,283 Descending Washington Center
Thu 04:16:36 PM 39.7150 -79.4331 100° East 409 471 29,700 -2,050 Descending Washington Center
Thu 04:17:35 PM 39.6944 -79.2917 101° East 409 471 27,700 -1,966 Descending Washington Center
Thu 04:18:35 PM 39.6756 -79.1558 100° East 395 455 25,800 -1,339 Descending Washington Center
Thu 04:19:36 PM 39.6500 -79.0306 105° East 377 434 25,000 -403 Descending Washington Center
Thu 04:20:34 PM 39.6186 -78.8861 106° East 370 426 25,000 -303 Level Washington Center
Thu 04:21:35 PM 39.5908 -78.7583 106° East 370 426 24,400 -1,180 Descending Washington Center
Thu 04:22:36 PM 39.5628 -78.6333 106° East 365 420 22,600 -1,815 Descending Washington Center
Thu 04:23:34 PM 39.5367 -78.5164 106° East 360 414 20,800 -1,765 Descending Washington Center
Thu 04:24:35 PM 39.5100 -78.4025 107° East 342 394 19,100 -1,537 Descending Washington Center
Thu 04:25:35 PM 39.4856 -78.2911 106° East 330 380 17,700 -1,835 Descending Washington Center
Thu 04:26:36 PM 39.4589 -78.1719 106° East 330 380 15,400 -1,339 Descending Washington Center
Thu 04:27:36 PM 39.4425 -78.0586 101° East 323 372 15,000 -198 Descending Washington Center
Thu 04:28:37 PM 39.4428 -77.9456 90° East 317 365 15,000  Level Washington Center
Thu 04:29:35 PM 39.4406 -77.8433 92° East 317 365 15,000  Level Washington Center
Thu 04:30:35 PM 39.4425 -77.7306 89° East 311 358 15,000 -99 Level Washington Center
Thu 04:31:36 PM 39.4425 -77.6150 90° East 311 358 14,800 -958 Descending Washington Center
Thu 04:32:34 PM 39.4442 -77.5050 89° East 311 358 13,100 -1,765 Descending Washington Center
Thu 04:33:35 PM 39.4439 -77.3975 90° East 311 358 11,300 -1,595 Descending Washington Center
Thu 04:33:53 PM 39.4500 -77.3500 81° East 298 343 11,000 -456 Descending Potomac TRACON
Thu 04:34:54 PM 39.4667 -77.2333 79° East 298 343 10,700 -793 Descending Potomac TRACON
Thu 04:35:54 PM 39.4667 -77.1333 90° East 279 321 9,400 -1,350 Descending Potomac TRACON
Thu 04:36:54 PM 39.4667 -77.0500 90° East 275 316 8,000 -1,300 Descending Potomac TRACON
Thu 04:37:54 PM 39.4500 -76.9500 102° East 266 306 6,800 -1,200 Descending Potomac TRACON
Thu 04:38:49 PM 39.4167 -76.8833 123° Southeast 270 311 5,700 -1,252 Descending Potomac TRACON
Thu 04:39:49 PM 39.3333 -76.8500 163° South 260 299 4,400 -1,300 Descending Potomac TRACON
Thu 04:41:00 PM 39.2465 -76.7465 142° Southeast  Level FlightAware Approximate
Thu 04:48:00 PM 39.1754 -76.6683 142° Southeast  Level Estimated
Thu 04:49:00 PM 39.1754 -76.6683 142° Southeast  Level Estimated
Thu 04:50:00 PM 39.1754 -76.6683 142° Southeast  Level Estimated
Thu 04:51:00 PM 39.1754 -76.6683 142° Southeast  Level Estimated
Thu 04:52:00 PM 39.1754 -76.6683 142° Southeast  Level Estimated
Thu 04:53:00 PM 39.1754 -76.6683 142° Southeast  Level Estimated
Thu 04:54:00 PM 39.1754 -76.6683 142° Southeast  Level Estimated
Thu 04:55:00 PM 39.1754 -76.6683 142° Southeast  Level Estimated
Thu 04:56:00 PM 39.1754 -76.6683 142° Southeast  Level Estimated
Thu 04:57:00 PM 39.1754 -76.6683 142° Southeast  Level Estimated

Login

Don't have an account? Register now (free) for customized features, flight alerts, and more!